Darstellungsparameter: Aktuell verwendete Einstellungen:
Skalierung der Graphiken ... ?
xyx+y,   Skalierungsfaktor:      Skalierung: Modus: x, Faktor: 1
Darstellungszeitraum ... ?
Vom - - bis: - -   Zeitraum: 24.04.2004 - 30.04.2004
Min/Max/Avg-Anzeige ... ?
Zeige MMA aktuell
Zeige MMA Monat
Zeige MMA alles
Zeige --A aktuell
Zeige --A Monat
Zeige --A alles
Keine MMA-Anzeige
MMA:
Keine MMA-Graphiken
MMA-Basis: 24.04.2004 - 30.04.2004
Quicknavigation für Darstellung... ?
Tage:      1T, 2T, 3T, 5T -1T -2T -3T -5T +1T +2T +3T +5T
Wochen: 1W, 2W, 3W -1W -2W -3W +1W +2W +3W
Monate: 1M, 3M, 6M -1M -3M -6M +1M +3M +6M
Jahre:    1J, 3J, 5J, 10J -1J -3J -5J -10J +1J +3J +5J +10J
Nutze für die Darstellung ... ?
Originaldaten oder Mittelwerte auf ...
Stundenbasis Tagesbasis Wochenbasis
Monatsbasis Jahresbasis      Datenbasis: Original-Daten
Darstellen als:
Statistik (Auto) Statistik J:M      Darstellung:
Zur Graphik,    zurück zur Übersicht aller Sensoren.
 
Tabellarische Datenbersicht: ?
 
Sensor: Nr:Datum:Temp:Abs-Feuchte:Windchill:Wind:
Aussen-T/F 1 24-04-2004 00:06:01 9.5 C 6.46 g/m*3 9.5 C 0 km/h
2 24-04-2004 00:18:02 9.2 C 6.43 g/m*3 9.2 C 0 km/h
3 24-04-2004 00:30:02 8.9 C 6.39 g/m*3 8.9 C 0 km/h
4 24-04-2004 00:42:01 8.6 C 6.27 g/m*3 8.6 C 0 km/h
5 24-04-2004 00:54:00 8.4 C 6.45 g/m*3 8.4 C 0 km/h
6 24-04-2004 01:05:59 8.2 C 6.36 g/m*3 8.2 C 0 km/h
7 24-04-2004 01:18:58 8.1 C 6.32 g/m*3 8.1 C 0 km/h
8 24-04-2004 01:30:57 8.1 C 6.32 g/m*3 8.1 C 0 km/h
9 24-04-2004 01:42:57 7.8 C 6.45 g/m*3 7.8 C 0 km/h
10 24-04-2004 01:54:01 7.6 C 6.44 g/m*3 7.6 C 0 km/h
11 24-04-2004 02:06:01 7.6 C 6.44 g/m*3 7.6 C 0 km/h
12 24-04-2004 02:18:01 7.5 C 6.48 g/m*3 7.5 C 0 km/h
13 24-04-2004 02:30:01 7.4 C 6.44 g/m*3 7.4 C 0 km/h
14 24-04-2004 02:42:01 7.4 C 6.44 g/m*3 7.4 C 0 km/h
15 24-04-2004 02:55:03 7.4 C 6.44 g/m*3 7.4 C 0 km/h
16 24-04-2004 03:07:04 7.3 C 6.48 g/m*3 7.3 C 0 km/h
17 24-04-2004 03:19:03 7.3 C 6.48 g/m*3 7.3 C 0 km/h
18 24-04-2004 03:31:00 7.1 C 6.4 g/m*3 7.1 C 0 km/h
19 24-04-2004 03:43:00 7.1 C 6.47 g/m*3 7.1 C 0 km/h
20 24-04-2004 03:55:00 7.1 C 6.47 g/m*3 7.1 C 0 km/h
21 24-04-2004 04:07:00 7.1 C 6.47 g/m*3 7.1 C 0 km/h
22 24-04-2004 04:19:59 7 C 6.43 g/m*3 7 C 0 km/h
23 24-04-2004 04:31:58 6.6 C 6.42 g/m*3 6.6 C 0 km/h
24 24-04-2004 04:43:58 6.4 C 6.41 g/m*3 6.4 C 0 km/h
25 24-04-2004 04:55:01 6.3 C 6.44 g/m*3 6.3 C 0 km/h
Sensor: Nr:Datum:Temp:Abs-Feuchte:Windchill:Wind:
Aussen-T/F 26 24-04-2004 05:07:01 6.2 C 6.47 g/m*3 6.2 C 0 km/h
27 24-04-2004 05:19:00 6.1 C 6.43 g/m*3 6.1 C 0 km/h
28 24-04-2004 05:31:00 5.9 C 6.42 g/m*3 5.9 C 0 km/h
29 24-04-2004 05:43:00 5.8 C 6.38 g/m*3 5.8 C 0 km/h
30 24-04-2004 05:55:01 5.6 C 6.29 g/m*3 5.6 C 0 km/h
31 24-04-2004 06:07:01 5.6 C 6.29 g/m*3 5.6 C 0 km/h
32 24-04-2004 06:19:01 5.5 C 6.25 g/m*3 5.5 C 0 km/h
33 24-04-2004 06:31:01 5.6 C 6.36 g/m*3 5.6 C 0 km/h
34 24-04-2004 06:43:01 5.6 C 6.36 g/m*3 5.6 C 0 km/h
35 24-04-2004 06:55:01 5.9 C 6.49 g/m*3 5.9 C 0 km/h
36 24-04-2004 07:07:01 5.7 C 6.4 g/m*3 5.7 C 0 km/h
37 24-04-2004 07:19:01 5.6 C 6.36 g/m*3 5.6 C 0 km/h
38 24-04-2004 07:31:01 5.6 C 6.36 g/m*3 5.6 C 0 km/h
39 24-04-2004 07:43:02 5.8 C 6.45 g/m*3 5.8 C 0 km/h
40 24-04-2004 07:55:00 6 C 6.53 g/m*3 6 C 0 km/h
41 24-04-2004 08:07:00 6.2 C 6.62 g/m*3 6.2 C 0 km/h
42 24-04-2004 08:19:59 6.4 C 6.63 g/m*3 6.4 C 0 km/h
43 24-04-2004 08:31:59 6.8 C 6.81 g/m*3 6.8 C 0 km/h
44 24-04-2004 08:44:00 7.1 C 6.86 g/m*3 7.1 C 0 km/h
45 24-04-2004 08:55:01 7.4 C 6.84 g/m*3 7.4 C 0 km/h
46 24-04-2004 09:07:02 7.8 C 6.94 g/m*3 7.8 C 0 km/h
47 24-04-2004 09:19:00 8.4 C 6.53 g/m*3 8.4 C 0 km/h
48 24-04-2004 09:31:00 9.2 C 6.25 g/m*3 9.2 C 0 km/h
49 24-04-2004 09:43:00 9.6 C 6.14 g/m*3 9.6 C 0 km/h
50 24-04-2004 09:55:01 10.2 C 6.19 g/m*3 10.2 C 0 km/h
Sensor: Nr:Datum:Temp:Abs-Feuchte:Windchill:Wind:
Aussen-T/F 51 24-04-2004 10:07:01 10.7 C 6.09 g/m*3 10.7 C 0 km/h
52 24-04-2004 10:19:01 11.2 C 6.18 g/m*3 11.2 C 0 km/h
53 24-04-2004 10:31:01 11.5 C 5.99 g/m*3 11.5 C 0 km/h
54 24-04-2004 10:43:01 11.9 C 5.93 g/m*3 11.9 C 0 km/h
55 24-04-2004 10:55:00 12.3 C 5.43 g/m*3 12.3 C 0 km/h
56 24-04-2004 11:07:00 12.7 C 5.57 g/m*3 12.7 C 0 km/h
57 24-04-2004 11:19:58 13.1 C 5.36 g/m*3 13.1 C 0 km/h
58 24-04-2004 11:31:07 13.2 C 5.17 g/m*3 13.2 C 0 km/h
59 24-04-2004 11:43:07 14.2 C 5.13 g/m*3 14.2 C 0 km/h
60 24-04-2004 11:55:01 14.5 C 4.97 g/m*3 14.5 C 0 km/h
61 24-04-2004 12:07:01 14.7 C 5.16 g/m*3 14.7 C 0 km/h
62 24-04-2004 12:19:01 16 C 5.45 g/m*3 16 C 0 km/h
63 24-04-2004 12:31:01 16 C 5.18 g/m*3 16 C 0 km/h
64 24-04-2004 12:43:01 15.3 C 4.96 g/m*3 15.3 C 0 km/h
65 24-04-2004 12:55:01 16.1 C 5.35 g/m*3 16.1 C 0 km/h
66 24-04-2004 13:07:02 16.8 C 5.43 g/m*3 16.8 C 0 km/h
67 24-04-2004 13:19:02 17.8 C 5.31 g/m*3 17.8 C 0 km/h
68 24-04-2004 13:31:02 17.5 C 5.07 g/m*3 17.5 C 0 km/h
69 24-04-2004 13:43:02 17.1 C 4.95 g/m*3 17.1 C 0 km/h
70 24-04-2004 13:55:01 17.5 C 5.22 g/m*3 17.5 C 0 km/h
71 24-04-2004 14:07:00 18 C 5.22 g/m*3 18 C 0 km/h
72 24-04-2004 14:19:59 17 C 4.77 g/m*3 17 C 0 km/h
73 24-04-2004 14:31:58 18 C 4.61 g/m*3 18 C 0 km/h
74 24-04-2004 14:43:58 18.3 C 4.85 g/m*3 18.3 C 0 km/h
75 24-04-2004 14:55:01 19.1 C 4.59 g/m*3 19.1 C 0 km/h
Sensor: Nr:Datum:Temp:Abs-Feuchte:Windchill:Wind:
Aussen-T/F 76 24-04-2004 15:07:01 19.1 C 4.59 g/m*3 19.1 C 0 km/h
77 24-04-2004 15:19:01 20.3 C 4.92 g/m*3 20.3 C 0 km/h
78 24-04-2004 15:31:00 20.3 C 4.57 g/m*3 20.3 C 0 km/h
79 24-04-2004 15:43:00 20 C 4.32 g/m*3 20 C 0 km/h
80 24-04-2004 15:55:01 20.1 C 4.35 g/m*3 20.1 C 0 km/h
81 24-04-2004 16:07:01 19.1 C 4.43 g/m*3 19.1 C 0 km/h
82 24-04-2004 16:19:01 19.3 C 4.48 g/m*3 19.3 C 0 km/h
83 24-04-2004 16:31:01 20.9 C 4.19 g/m*3 20.9 C 0 km/h
84 24-04-2004 16:43:01 21.5 C 4.71 g/m*3 21.5 C 0 km/h
85 24-04-2004 16:55:00 21.8 C 4.22 g/m*3 21.8 C 0 km/h
86 24-04-2004 17:07:00 19.5 C 4.36 g/m*3 19.5 C 0 km/h
87 24-04-2004 17:19:59 21.2 C 4.63 g/m*3 21.2 C 0 km/h
88 24-04-2004 17:31:58 21.2 C 4.26 g/m*3 21.2 C 0 km/h
89 24-04-2004 17:43:58 21.6 C 4.74 g/m*3 21.6 C 0 km/h
90 24-04-2004 17:55:01 22 C 3.88 g/m*3 22 C 0 km/h
91 24-04-2004 18:07:01 21.6 C 4.74 g/m*3 21.6 C 0 km/h
92 24-04-2004 18:19:01 21.4 C 4.69 g/m*3 21.4 C 0 km/h
93 24-04-2004 18:31:01 20.1 C 4.69 g/m*3 20.1 C 0 km/h
94 24-04-2004 18:43:01 20.8 C 4.71 g/m*3 20.8 C 0 km/h
95 24-04-2004 18:55:01 20.5 C 4.63 g/m*3 20.5 C 0 km/h
96 24-04-2004 19:07:01 20 C 4.49 g/m*3 20 C 0 km/h
97 24-04-2004 19:19:01 19.1 C 4.75 g/m*3 19.1 C 0 km/h
98 24-04-2004 19:31:01 19.5 C 5.03 g/m*3 19.5 C 0 km/h
99 24-04-2004 19:43:01 19 C 4.73 g/m*3 19 C 0 km/h
100 24-04-2004 19:55:00 17.8 C 4.86 g/m*3 17.8 C 0 km/h
Sensor: Nr:Datum:Temp:Abs-Feuchte:Windchill:Wind:
Aussen-T/F 101 24-04-2004 20:07:00 17.8 C 5.31 g/m*3 17.8 C 0 km/h
102 24-04-2004 20:19:00 16.7 C 4.97 g/m*3 16.7 C 0 km/h
103 24-04-2004 20:31:58 16.3 C 5.27 g/m*3 16.3 C 0 km/h
104 24-04-2004 20:43:58 15.7 C 5.62 g/m*3 15.7 C 0 km/h
105 24-04-2004 20:55:00 15 C 5.64 g/m*3 15 C 0 km/h
106 24-04-2004 21:07:00 14.2 C 5.49 g/m*3 14.2 C 0 km/h
107 24-04-2004 21:19:00 13.4 C 5.46 g/m*3 13.4 C 0 km/h
108 24-04-2004 21:31:00 12.7 C 5.57 g/m*3 12.7 C 0 km/h
109 24-04-2004 21:43:00 12.4 C 5.68 g/m*3 12.4 C 0 km/h
110 24-04-2004 21:55:01 12 C 5.54 g/m*3 12 C 0 km/h
111 24-04-2004 22:07:01 11.8 C 5.79 g/m*3 11.8 C 0 km/h
112 24-04-2004 22:19:01 11.5 C 5.78 g/m*3 11.5 C 0 km/h
113 24-04-2004 22:31:01 11.4 C 5.95 g/m*3 11.4 C 0 km/h
114 24-04-2004 22:43:01 11.1 C 5.84 g/m*3 11.1 C 0 km/h
115 24-04-2004 22:55:00 11 C 5.91 g/m*3 11 C 0 km/h
116 24-04-2004 23:07:00 11 C 5.91 g/m*3 11 C 0 km/h
117 24-04-2004 23:19:58 10.8 C 6.03 g/m*3 10.8 C 0 km/h
118 24-04-2004 23:31:57 10.7 C 5.99 g/m*3 10.7 C 0 km/h
119 24-04-2004 23:43:57 10.7 C 6.09 g/m*3 10.7 C 0 km/h
120 24-04-2004 23:55:01 10.5 C 6.01 g/m*3 10.5 C 0 km/h
121 25-04-2004 00:07:01 10.1 C 6.05 g/m*3 10.1 C 0 km/h
122 25-04-2004 00:19:01 9.9 C 6.07 g/m*3 9.9 C 0 km/h
123 25-04-2004 00:31:01 9.7 C 6.08 g/m*3 9.7 C 0 km/h
124 25-04-2004 00:43:01 9.4 C 6.06 g/m*3 9.4 C 0 km/h
125 25-04-2004 00:55:00 9 C 6.08 g/m*3 9 C 0 km/h
Sensor: Nr:Datum:Temp:Abs-Feuchte:Windchill:Wind:
Aussen-T/F 126 25-04-2004 01:07:00 8.9 C 6.13 g/m*3 8.9 C 0 km/h
127 25-04-2004 01:19:58 8.6 C 6.1 g/m*3 8.6 C 0 km/h
128 25-04-2004 01:31:57 8.4 C 6.11 g/m*3 8.4 C 0 km/h
129 25-04-2004 01:43:57 8.2 C 6.11 g/m*3 8.2 C 0 km/h
130 25-04-2004 01:55:01 8.1 C 6.07 g/m*3 8.1 C 0 km/h
131 25-04-2004 02:07:01 7.9 C 6.16 g/m*3 7.9 C 0 km/h
132 25-04-2004 02:19:01 7.9 C 6.24 g/m*3 7.9 C 0 km/h
133 25-04-2004 02:31:01 7.7 C 6.16 g/m*3 7.7 C 0 km/h
134 25-04-2004 02:43:01 7.7 C 6.32 g/m*3 7.7 C 0 km/h
135 25-04-2004 02:56:00 7.7 C 6.32 g/m*3 7.7 C 0 km/h
136 25-04-2004 03:08:00 7.7 C 6.24 g/m*3 7.7 C 0 km/h
137 25-04-2004 03:20:59 7.5 C 6.16 g/m*3 7.5 C 0 km/h
138 25-04-2004 03:32:01 7.3 C 6.08 g/m*3 7.3 C 0 km/h
139 25-04-2004 03:44:01 7 C 6.04 g/m*3 7 C 0 km/h
140 25-04-2004 03:56:01 6.9 C 6.16 g/m*3 6.9 C 0 km/h
141 25-04-2004 04:08:01 6.6 C 6.04 g/m*3 6.6 C 0 km/h
142 25-04-2004 04:20:01 6.5 C 6.07 g/m*3 6.5 C 0 km/h
143 25-04-2004 04:32:00 6.3 C 6.07 g/m*3 6.3 C 0 km/h
144 25-04-2004 04:44:00 6.1 C 6.06 g/m*3 6.1 C 0 km/h
145 25-04-2004 04:56:01 6 C 6.02 g/m*3 6 C 0 km/h
146 25-04-2004 05:08:01 5.9 C 6.06 g/m*3 5.9 C 0 km/h
147 25-04-2004 05:20:01 5.7 C 5.98 g/m*3 5.7 C 0 km/h
148 25-04-2004 05:32:01 5.6 C 6.01 g/m*3 5.6 C 0 km/h
149 25-04-2004 05:44:01 5.4 C 5.86 g/m*3 5.4 C 0 km/h
150 25-04-2004 05:56:00 5.3 C 5.89 g/m*3 5.3 C 0 km/h
Sensor: Nr:Datum:Temp:Abs-Feuchte:Windchill:Wind:
Aussen-T/F 151 25-04-2004 06:08:00 5.2 C 5.92 g/m*3 5.2 C 0 km/h
152 25-04-2004 06:20:58 5.1 C 5.88 g/m*3 5.1 C 0 km/h
153 25-04-2004 06:32:57 4.9 C 5.87 g/m*3 4.9 C 0 km/h
154 25-04-2004 06:44:01 4.9 C 5.87 g/m*3 4.9 C 0 km/h
155 25-04-2004 06:56:01 4.8 C 5.9 g/m*3 4.8 C 0 km/h
156 25-04-2004 07:08:01 4.9 C 5.94 g/m*3 4.9 C 0 km/h
157 25-04-2004 07:20:01 5.1 C 5.95 g/m*3 5.1 C 0 km/h
158 25-04-2004 07:32:01 5.2 C 5.99 g/m*3 5.2 C 0 km/h
159 25-04-2004 07:44:01 5.3 C 6.03 g/m*3 5.3 C 0 km/h
160 25-04-2004 07:56:01 5.3 C 6.03 g/m*3 5.3 C 0 km/h
161 25-04-2004 08:08:01 5.6 C 6.15 g/m*3 5.6 C 0 km/h
162 25-04-2004 08:20:01 5.9 C 6.27 g/m*3 5.9 C 0 km/h
163 25-04-2004 08:32:01 6.2 C 6.1 g/m*3 6.2 C 0 km/h
164 25-04-2004 08:44:01 6.4 C 6.18 g/m*3 6.4 C 0 km/h
165 25-04-2004 08:56:00 6.8 C 6.27 g/m*3 6.8 C 0 km/h
166 25-04-2004 09:08:00 7.2 C 6.36 g/m*3 7.2 C 0 km/h
167 25-04-2004 09:20:59 7.8 C 6.53 g/m*3 7.8 C 0 km/h
168 25-04-2004 09:32:57 8.4 C 6.62 g/m*3 8.4 C 0 km/h
169 25-04-2004 09:44:01 9 C 6.7 g/m*3 9 C 0 km/h
170 25-04-2004 09:56:01 9.9 C 6.91 g/m*3 9.9 C 0 km/h
171 25-04-2004 10:08:01 10.5 C 6.89 g/m*3 10.5 C 0 km/h
172 25-04-2004 10:20:01 11.3 C 6.94 g/m*3 11.3 C 0 km/h
173 25-04-2004 10:32:01 11.9 C 7.1 g/m*3 11.9 C 0 km/h
174 25-04-2004 10:44:01 12.6 C 6.75 g/m*3 12.6 C 0 km/h
175 25-04-2004 10:56:00 13.4 C 6.86 g/m*3 13.4 C 0 km/h
Sensor: Nr:Datum:Temp:Abs-Feuchte:Windchill:Wind:
Aussen-T/F 176 25-04-2004 11:08:59 13.7 C 6.87 g/m*3 13.7 C 0 km/h
177 25-04-2004 11:20:58 14 C 6.39 g/m*3 14 C 0 km/h
178 25-04-2004 11:32:57 14.2 C 6.47 g/m*3 14.2 C 0 km/h
179 25-04-2004 11:44:01 14.5 C 6.47 g/m*3 14.5 C 0 km/h
180 25-04-2004 11:56:01 14.8 C 6.33 g/m*3 14.8 C 0 km/h
181 25-04-2004 12:08:01 15.2 C 6.1 g/m*3 15.2 C 0 km/h
182 25-04-2004 12:20:01 15.6 C 5.72 g/m*3 15.6 C 0 km/h
183 25-04-2004 12:32:01 16.7 C 5.83 g/m*3 16.7 C 0 km/h
184 25-04-2004 12:44:01 17.1 C 5.82 g/m*3 17.1 C 0 km/h
185 25-04-2004 12:56:00 17.3 C 5.6 g/m*3 17.3 C 0 km/h
186 25-04-2004 13:08:00 17.1 C 5.39 g/m*3 17.1 C 0 km/h
187 25-04-2004 13:20:59 17.7 C 5.43 g/m*3 17.7 C 0 km/h
188 25-04-2004 13:32:58 18.9 C 5.67 g/m*3 18.9 C 0 km/h
189 25-04-2004 13:44:01 19.5 C 5.37 g/m*3 19.5 C 0 km/h
190 25-04-2004 13:56:01 18.4 C 5.82 g/m*3 18.4 C 0 km/h
191 25-04-2004 14:08:00 18.8 C 5.8 g/m*3 18.8 C 0 km/h
192 25-04-2004 14:20:01 19.1 C 5.57 g/m*3 19.1 C 0 km/h
193 25-04-2004 14:32:00 19.6 C 5.74 g/m*3 19.6 C 0 km/h
194 25-04-2004 14:44:00 19.8 C 5.64 g/m*3 19.8 C 0 km/h
195 25-04-2004 14:56:01 19.9 C 5.33 g/m*3 19.9 C 0 km/h
196 25-04-2004 15:08:01 20.5 C 5.69 g/m*3 20.5 C 0 km/h
197 25-04-2004 15:20:01 20.4 C 5.31 g/m*3 20.4 C 0 km/h
198 25-04-2004 15:32:01 20.5 C 5.52 g/m*3 20.5 C 0 km/h
199 25-04-2004 15:44:01 19.9 C 5.67 g/m*3 19.9 C 0 km/h
200 25-04-2004 15:56:00 20.2 C 6.29 g/m*3 20.2 C 0 km/h
Sensor: Nr:Datum:Temp:Abs-Feuchte:Windchill:Wind:
Aussen-T/F 201 25-04-2004 16:08:00 20.7 C 6.12 g/m*3 20.7 C 0 km/h
202 25-04-2004 16:20:58 20.3 C 6.16 g/m*3 20.3 C 0 km/h
203 25-04-2004 16:32:57 20.9 C 5.83 g/m*3 20.9 C 0 km/h
204 25-04-2004 16:44:01 20.1 C 6.08 g/m*3 20.1 C 0 km/h
205 25-04-2004 16:56:01 20.6 C 6.09 g/m*3 20.6 C 0 km/h
206 25-04-2004 17:08:01 21.6 C 6.07 g/m*3 21.6 C 0 km/h
207 25-04-2004 17:20:01 22 C 5.82 g/m*3 22 C 0 km/h
208 25-04-2004 17:32:06 21 C 5.86 g/m*3 21 C 0 km/h
209 25-04-2004 17:44:06 21.2 C 5.56 g/m*3 21.2 C 0 km/h
210 25-04-2004 17:56:01 21.1 C 5.53 g/m*3 21.1 C 0 km/h
211 25-04-2004 18:08:01 21.2 C 5.74 g/m*3 21.2 C 0 km/h
212 25-04-2004 18:20:01 20.6 C 5.91 g/m*3 20.6 C 0 km/h
213 25-04-2004 18:32:01 20.5 C 6.05 g/m*3 20.5 C 0 km/h
214 25-04-2004 18:44:01 19.7 C 5.94 g/m*3 19.7 C 0 km/h
215 25-04-2004 18:56:01 19.3 C 5.97 g/m*3 19.3 C 0 km/h
216 25-04-2004 19:08:01 18.9 C 6.16 g/m*3 18.9 C 0 km/h
217 25-04-2004 19:20:01 18.3 C 5.79 g/m*3 18.3 C 0 km/h
218 25-04-2004 19:32:01 17.9 C 5.95 g/m*3 17.9 C 0 km/h
219 25-04-2004 19:44:01 17.4 C 5.93 g/m*3 17.4 C 0 km/h
220 25-04-2004 19:56:00 16.8 C 6.15 g/m*3 16.8 C 0 km/h
221 25-04-2004 20:08:00 16.4 C 6 g/m*3 16.4 C 0 km/h
222 25-04-2004 20:20:59 15.2 C 5.71 g/m*3 15.2 C 0 km/h
223 25-04-2004 20:32:58 14.7 C 5.79 g/m*3 14.7 C 0 km/h
224 25-04-2004 20:44:01 14.2 C 5.62 g/m*3 14.2 C 0 km/h
225 25-04-2004 20:56:01 13.9 C 5.75 g/m*3 13.9 C 0 km/h
Sensor: Nr:Datum:Temp:Abs-Feuchte:Windchill:Wind:
Aussen-T/F 226 25-04-2004 21:08:01 13.5 C 5.61 g/m*3 13.5 C 0 km/h
227 25-04-2004 21:20:01 13.4 C 5.93 g/m*3 13.4 C 0 km/h
228 25-04-2004 21:32:01 13.4 C 5.81 g/m*3 13.4 C 0 km/h
229 25-04-2004 21:44:01 13.3 C 6.12 g/m*3 13.3 C 0 km/h
230 25-04-2004 21:56:01 13 C 6.01 g/m*3 13 C 0 km/h
231 25-04-2004 22:08:02 12.6 C 6.08 g/m*3 12.6 C 0 km/h
232 25-04-2004 22:20:02 12.3 C 5.97 g/m*3 12.3 C 0 km/h
233 25-04-2004 22:32:01 12.1 C 6.01 g/m*3 12.1 C 0 km/h
234 25-04-2004 22:44:01 12 C 6.18 g/m*3 12 C 0 km/h
235 25-04-2004 22:56:00 11.7 C 6.28 g/m*3 11.7 C 0 km/h
236 25-04-2004 23:08:00 11.5 C 6.2 g/m*3 11.5 C 0 km/h
237 25-04-2004 23:20:59 11.4 C 6.16 g/m*3 11.4 C 0 km/h
238 25-04-2004 23:32:58 11.2 C 6.28 g/m*3 11.2 C 0 km/h
239 25-04-2004 23:44:01 11 C 6.21 g/m*3 11 C 0 km/h
240 25-04-2004 23:56:01 10.8 C 6.23 g/m*3 10.8 C 0 km/h
241 26-04-2004 00:08:01 10.7 C 6.38 g/m*3 10.7 C 0 km/h
242 26-04-2004 00:20:01 10.4 C 6.26 g/m*3 10.4 C 0 km/h
243 26-04-2004 00:32:00 10.2 C 6.28 g/m*3 10.2 C 0 km/h
244 26-04-2004 00:44:00 10 C 6.2 g/m*3 10 C 0 km/h
245 26-04-2004 00:56:01 10 C 6.3 g/m*3 10 C 0 km/h
246 26-04-2004 01:08:01 9.8 C 6.31 g/m*3 9.8 C 0 km/h
247 26-04-2004 01:20:01 9.5 C 6.19 g/m*3 9.5 C 0 km/h
248 26-04-2004 01:32:01 9.3 C 6.29 g/m*3 9.3 C 0 km/h
249 26-04-2004 01:44:01 9.1 C 6.21 g/m*3 9.1 C 0 km/h
250 26-04-2004 01:56:00 8.9 C 6.31 g/m*3 8.9 C 0 km/h
Sensor: Nr:Datum:Temp:Abs-Feuchte:Windchill:Wind:
Aussen-T/F 251 26-04-2004 02:08:59 8.6 C 6.27 g/m*3 8.6 C 0 km/h
252 26-04-2004 02:20:58 8.4 C 6.11 g/m*3 8.4 C 0 km/h
253 26-04-2004 02:32:57 8.1 C 6.07 g/m*3 8.1 C 0 km/h
254 26-04-2004 02:45:02 8.1 C 6.16 g/m*3 8.1 C 0 km/h
255 26-04-2004 02:57:03 8.1 C 5.99 g/m*3 8.1 C 0 km/h
256 26-04-2004 03:09:03 7.8 C 6.04 g/m*3 7.8 C 0 km/h
257 26-04-2004 03:21:02 7.7 C 6.08 g/m*3 7.7 C 0 km/h
258 26-04-2004 03:33:00 7.7 C 6.08 g/m*3 7.7 C 0 km/h
259 26-04-2004 03:45:00 7.5 C 6.16 g/m*3 7.5 C 0 km/h
260 26-04-2004 03:57:00 7.5 C 6.32 g/m*3 7.5 C 0 km/h
261 26-04-2004 04:09:00 7.4 C 6.28 g/m*3 7.4 C 0 km/h
262 26-04-2004 04:21:58 7.1 C 6.08 g/m*3 7.1 C 0 km/h
263 26-04-2004 04:33:57 7.1 C 6.08 g/m*3 7.1 C 0 km/h
264 26-04-2004 04:45:01 7 C 6.04 g/m*3 7 C 0 km/h
265 26-04-2004 04:57:01 7 C 6.04 g/m*3 7 C 0 km/h
266 26-04-2004 05:09:01 6.9 C 6.08 g/m*3 6.9 C 0 km/h
267 26-04-2004 05:21:01 6.8 C 6.04 g/m*3 6.8 C 0 km/h
268 26-04-2004 05:33:01 6.7 C 6 g/m*3 6.7 C 0 km/h
269 26-04-2004 05:45:00 6.6 C 5.96 g/m*3 6.6 C 0 km/h
270 26-04-2004 05:57:00 6.5 C 6 g/m*3 6.5 C 0 km/h
271 26-04-2004 06:09:59 6.4 C 5.96 g/m*3 6.4 C 0 km/h
272 26-04-2004 06:21:58 6.5 C 6 g/m*3 6.5 C 0 km/h
273 26-04-2004 06:33:57 6.4 C 5.96 g/m*3 6.4 C 0 km/h
274 26-04-2004 06:45:01 6.4 C 5.96 g/m*3 6.4 C 0 km/h
275 26-04-2004 06:57:01 6.5 C 6.07 g/m*3 6.5 C 0 km/h
Sensor: Nr:Datum:Temp:Abs-Feuchte:Windchill:Wind:
Aussen-T/F 276 26-04-2004 07:09:01 6.8 C 6.19 g/m*3 6.8 C 0 km/h
277 26-04-2004 07:21:01 7 C 6.12 g/m*3 7 C 0 km/h
278 26-04-2004 07:33:01 7.1 C 6.16 g/m*3 7.1 C 0 km/h
279 26-04-2004 07:45:00 7.4 C 6.28 g/m*3 7.4 C 0 km/h
280 26-04-2004 07:57:00 7.5 C 6.24 g/m*3 7.5 C 0 km/h
281 26-04-2004 08:09:00 7.8 C 6.37 g/m*3 7.8 C 0 km/h
282 26-04-2004 08:21:59 8.1 C 6.32 g/m*3 8.1 C 0 km/h
283 26-04-2004 08:33:58 8.3 C 6.24 g/m*3 8.3 C 0 km/h
284 26-04-2004 08:45:01 8.6 C 6.27 g/m*3 8.6 C 0 km/h
285 26-04-2004 08:57:02 8.8 C 6.35 g/m*3 8.8 C 0 km/h
286 26-04-2004 09:09:01 9.5 C 6.55 g/m*3 9.5 C 0 km/h
287 26-04-2004 09:21:01 10.1 C 6.43 g/m*3 10.1 C 0 km/h
288 26-04-2004 09:33:00 10.9 C 6.56 g/m*3 10.9 C 0 km/h
289 26-04-2004 09:45:01 11.7 C 6.69 g/m*3 11.7 C 0 km/h
290 26-04-2004 09:57:01 12.2 C 6.58 g/m*3 12.2 C 0 km/h
291 26-04-2004 10:09:01 13.2 C 6.66 g/m*3 13.2 C 0 km/h
292 26-04-2004 10:21:01 14 C 6.15 g/m*3 14 C 0 km/h
293 26-04-2004 10:33:01 14.4 C 6.3 g/m*3 14.4 C 0 km/h
294 26-04-2004 10:45:00 14.8 C 6.46 g/m*3 14.8 C 0 km/h
295 26-04-2004 10:57:00 15.4 C 6.57 g/m*3 15.4 C 0 km/h
296 26-04-2004 11:09:00 15.8 C 5.92 g/m*3 15.8 C 0 km/h
297 26-04-2004 11:21:58 16.6 C 5.65 g/m*3 16.6 C 0 km/h
298 26-04-2004 11:33:57 17.2 C 5.56 g/m*3 17.2 C 0 km/h
299 26-04-2004 11:45:01 17 C 5.21 g/m*3 17 C 0 km/h
300 26-04-2004 11:57:01 17.2 C 5.13 g/m*3 17.2 C 0 km/h
Sensor: Nr:Datum:Temp:Abs-Feuchte:Windchill:Wind:
Aussen-T/F 301 26-04-2004 12:09:01 18.1 C 5.41 g/m*3 18.1 C 0 km/h
302 26-04-2004 12:21:01 18.5 C 5.06 g/m*3 18.5 C 0 km/h
303 26-04-2004 12:33:01 18.9 C 5.35 g/m*3 18.9 C 0 km/h
304 26-04-2004 12:45:01 19.1 C 5.41 g/m*3 19.1 C 0 km/h
305 26-04-2004 12:57:01 18.8 C 5.96 g/m*3 18.8 C 0 km/h
306 26-04-2004 13:09:01 19.2 C 5.94 g/m*3 19.2 C 0 km/h
307 26-04-2004 13:21:01 18.6 C 5.73 g/m*3 18.6 C 0 km/h
308 26-04-2004 13:33:01 19.7 C 6.28 g/m*3 19.7 C 0 km/h
309 26-04-2004 13:45:00 19.9 C 5.5 g/m*3 19.9 C 0 km/h
310 26-04-2004 13:57:00 19.4 C 6.01 g/m*3 19.4 C 0 km/h
311 26-04-2004 14:09:00 20.1 C 6.43 g/m*3 20.1 C 0 km/h
312 26-04-2004 14:21:59 20.7 C 6.12 g/m*3 20.7 C 0 km/h
313 26-04-2004 14:33:57 20 C 5.7 g/m*3 20 C 0 km/h
314 26-04-2004 14:45:01 20.1 C 5.74 g/m*3 20.1 C 0 km/h
315 26-04-2004 14:57:01 21.1 C 5.71 g/m*3 21.1 C 0 km/h
316 26-04-2004 15:09:01 22.1 C 5.86 g/m*3 22.1 C 0 km/h
317 26-04-2004 15:21:01 22.4 C 5.36 g/m*3 22.4 C 0 km/h
318 26-04-2004 15:33:01 23.2 C 5.61 g/m*3 23.2 C 0 km/h
319 26-04-2004 15:45:00 23.3 C 5.23 g/m*3 23.3 C 0 km/h
320 26-04-2004 15:57:00 23.5 C 5.29 g/m*3 23.5 C 0 km/h
321 26-04-2004 16:09:00 24.1 C 5.25 g/m*3 24.1 C 0 km/h
322 26-04-2004 16:21:58 24.4 C 5.34 g/m*3 24.4 C 0 km/h
323 26-04-2004 16:33:57 24.5 C 4.92 g/m*3 24.5 C 0 km/h
324 26-04-2004 16:45:01 24.1 C 5.03 g/m*3 24.1 C 0 km/h
325 26-04-2004 16:57:02 24.3 C 4.87 g/m*3 24.3 C 0 km/h
Sensor: Nr:Datum:Temp:Abs-Feuchte:Windchill:Wind:
Aussen-T/F 326 26-04-2004 17:09:01 24.9 C 5.26 g/m*3 24.9 C 0 km/h
327 26-04-2004 17:21:02 24.9 C 5.04 g/m*3 24.9 C 0 km/h
328 26-04-2004 17:33:01 25.2 C 4.89 g/m*3 25.2 C 0 km/h
329 26-04-2004 17:45:00 25.1 C 4.63 g/m*3 25.1 C 0 km/h
330 26-04-2004 17:57:00 25.2 C 4.89 g/m*3 25.2 C 0 km/h
331 26-04-2004 18:09:01 25.4 C 4.71 g/m*3 25.4 C 0 km/h
332 26-04-2004 18:21:59 25.2 C 5.12 g/m*3 25.2 C 0 km/h
333 26-04-2004 18:33:58 24.3 C 4.87 g/m*3 24.3 C 0 km/h
334 26-04-2004 18:45:01 24.4 C 5.56 g/m*3 24.4 C 0 km/h
335 26-04-2004 18:57:01 24 C 5.66 g/m*3 24 C 0 km/h
336 26-04-2004 19:09:01 23.2 C 5.82 g/m*3 23.2 C 0 km/h
337 26-04-2004 19:21:01 22.9 C 5.93 g/m*3 22.9 C 0 km/h
338 26-04-2004 19:33:01 22.4 C 5.56 g/m*3 22.4 C 0 km/h
339 26-04-2004 19:45:01 21.8 C 5.95 g/m*3 21.8 C 0 km/h
340 26-04-2004 19:57:01 21.5 C 5.66 g/m*3 21.5 C 0 km/h
341 26-04-2004 20:09:00 21.4 C 6.37 g/m*3 21.4 C 0 km/h
342 26-04-2004 20:21:59 20.3 C 6.33 g/m*3 20.3 C 0 km/h
343 26-04-2004 20:33:57 18.9 C 5.99 g/m*3 18.9 C 0 km/h
344 26-04-2004 20:45:02 18.4 C 5.98 g/m*3 18.4 C 0 km/h
345 26-04-2004 20:57:02 17.8 C 5.92 g/m*3 17.8 C 0 km/h
346 26-04-2004 21:09:01 17.2 C 5.86 g/m*3 17.2 C 0 km/h
347 26-04-2004 21:21:01 16.8 C 6 g/m*3 16.8 C 0 km/h
348 26-04-2004 21:33:01 16.4 C 6.14 g/m*3 16.4 C 0 km/h
349 26-04-2004 21:45:00 16.1 C 6.17 g/m*3 16.1 C 0 km/h
350 26-04-2004 21:57:00 15.9 C 6.37 g/m*3 15.9 C 0 km/h
Sensor: Nr:Datum:Temp:Abs-Feuchte:Windchill:Wind:
Aussen-T/F 351 26-04-2004 22:09:00 15.7 C 6.56 g/m*3 15.7 C 0 km/h
352 26-04-2004 22:22:01 15.4 C 6.57 g/m*3 15.4 C 0 km/h
353 26-04-2004 22:34:01 15.4 C 6.57 g/m*3 15.4 C 0 km/h
354 26-04-2004 22:46:01 14.9 C 6.75 g/m*3 14.9 C 0 km/h
355 26-04-2004 22:58:01 14.6 C 6.76 g/m*3 14.6 C 0 km/h
356 26-04-2004 23:10:01 14.4 C 6.8 g/m*3 14.4 C 0 km/h
357 26-04-2004 23:22:01 14.1 C 6.8 g/m*3 14.1 C 0 km/h
358 26-04-2004 23:34:02 13.9 C 6.83 g/m*3 13.9 C 0 km/h
359 26-04-2004 23:46:02 13.6 C 6.94 g/m*3 13.6 C 0 km/h
360 26-04-2004 23:58:02 13.2 C 6.77 g/m*3 13.2 C 0 km/h
361 27-04-2004 00:10:02 13 C 6.8 g/m*3 13 C 0 km/h
362 27-04-2004 00:22:02 12.8 C 6.94 g/m*3 12.8 C 0 km/h
363 27-04-2004 00:34:02 12.9 C 6.99 g/m*3 12.9 C 0 km/h
364 27-04-2004 00:46:02 12.5 C 6.93 g/m*3 12.5 C 0 km/h
365 27-04-2004 00:58:02 12.2 C 6.91 g/m*3 12.2 C 0 km/h
366 27-04-2004 01:10:02 12 C 6.93 g/m*3 12 C 0 km/h
367 27-04-2004 01:22:02 11.7 C 6.9 g/m*3 11.7 C 0 km/h
368 27-04-2004 01:34:02 11.5 C 6.92 g/m*3 11.5 C 0 km/h
369 27-04-2004 01:46:02 11.2 C 6.79 g/m*3 11.2 C 0 km/h
370 27-04-2004 01:58:02 10.9 C 6.86 g/m*3 10.9 C 0 km/h
371 27-04-2004 02:10:02 10.7 C 6.88 g/m*3 10.7 C 0 km/h
372 27-04-2004 02:22:02 10.6 C 6.83 g/m*3 10.6 C 0 km/h
373 27-04-2004 02:34:02 10.5 C 6.89 g/m*3 10.5 C 0 km/h
374 27-04-2004 02:46:02 10.1 C 6.81 g/m*3 10.1 C 0 km/h
375 27-04-2004 02:58:02 10.1 C 6.81 g/m*3 10.1 C 0 km/h
Sensor: Nr:Datum:Temp:Abs-Feuchte:Windchill:Wind:
Aussen-T/F 376 27-04-2004 03:10:02 9.7 C 6.73 g/m*3 9.7 C 0 km/h
377 27-04-2004 03:22:02 9.5 C 6.74 g/m*3 9.5 C 0 km/h
378 27-04-2004 03:34:02 9.3 C 6.74 g/m*3 9.3 C 0 km/h
379 27-04-2004 03:46:02 9.2 C 6.79 g/m*3 9.2 C 0 km/h
380 27-04-2004 03:58:03 9 C 6.79 g/m*3 9 C 0 km/h
381 27-04-2004 04:10:03 8.9 C 6.83 g/m*3 8.9 C 0 km/h
382 27-04-2004 04:22:03 8.8 C 6.88 g/m*3 8.8 C 0 km/h
383 27-04-2004 04:34:03 8.6 C 6.79 g/m*3 8.6 C 0 km/h
384 27-04-2004 04:46:03 8.4 C 6.7 g/m*3 8.4 C 0 km/h
385 27-04-2004 04:58:03 8.3 C 6.66 g/m*3 8.3 C 0 km/h
386 27-04-2004 05:10:03 8.1 C 6.66 g/m*3 8.1 C 0 km/h
387 27-04-2004 05:22:03 8 C 6.61 g/m*3 8 C 0 km/h
388 27-04-2004 05:34:03 7.9 C 6.74 g/m*3 7.9 C 0 km/h
389 27-04-2004 05:46:03 8 C 6.7 g/m*3 8 C 0 km/h
390 27-04-2004 05:58:03 8 C 6.61 g/m*3 8 C 0 km/h
391 27-04-2004 06:10:03 8.1 C 6.66 g/m*3 8.1 C 0 km/h
392 27-04-2004 06:22:03 8.2 C 6.7 g/m*3 8.2 C 0 km/h
393 27-04-2004 06:34:03 8.2 C 6.7 g/m*3 8.2 C 0 km/h
394 27-04-2004 06:46:01 8.2 C 6.7 g/m*3 8.2 C 0 km/h
395 27-04-2004 06:58:01 8.2 C 6.7 g/m*3 8.2 C 0 km/h
396 27-04-2004 07:10:01 8.2 C 6.7 g/m*3 8.2 C 0 km/h
397 27-04-2004 07:22:01 8.4 C 6.87 g/m*3 8.4 C 0 km/h
398 27-04-2004 07:34:01 8.4 C 6.79 g/m*3 8.4 C 0 km/h
399 27-04-2004 07:46:01 8.3 C 6.74 g/m*3 8.3 C 0 km/h
400 27-04-2004 07:58:02 8.6 C 6.87 g/m*3 8.6 C 0 km/h
Sensor: Nr:Datum:Temp:Abs-Feuchte:Windchill:Wind:
Aussen-T/F 401 27-04-2004 08:10:01 8.8 C 6.88 g/m*3 8.8 C 0 km/h
402 27-04-2004 08:22:01 8.9 C 6.83 g/m*3 8.9 C 0 km/h
403 27-04-2004 08:34:01 9.2 C 6.88 g/m*3 9.2 C 0 km/h
404 27-04-2004 08:46:00 9.7 C 7.1 g/m*3 9.7 C 0 km/h
405 27-04-2004 08:58:00 10.1 C 7.09 g/m*3 10.1 C 0 km/h
406 27-04-2004 09:10:00 10.7 C 7.27 g/m*3 10.7 C 0 km/h
407 27-04-2004 09:22:59 11 C 7.11 g/m*3 11 C 0 km/h
408 27-04-2004 09:34:57 11.8 C 7.26 g/m*3 11.8 C 0 km/h
409 27-04-2004 09:46:01 12.6 C 7.19 g/m*3 12.6 C 0 km/h
410 27-04-2004 09:58:01 13.5 C 7.13 g/m*3 13.5 C 0 km/h
411 27-04-2004 10:10:01 14.6 C 7.13 g/m*3 14.6 C 0 km/h
412 27-04-2004 10:22:01 15.3 C 7.18 g/m*3 15.3 C 0 km/h
413 27-04-2004 10:34:01 15.8 C 7.27 g/m*3 15.8 C 0 km/h
414 27-04-2004 10:46:00 16.3 C 7.08 g/m*3 16.3 C 0 km/h
415 27-04-2004 10:58:00 16.6 C 7.2 g/m*3 16.6 C 0 km/h
416 27-04-2004 11:10:00 17.1 C 6.99 g/m*3 17.1 C 0 km/h
417 27-04-2004 11:22:58 17.2 C 6.74 g/m*3 17.2 C 0 km/h
418 27-04-2004 11:34:57 18 C 6.91 g/m*3 18 C 0 km/h
419 27-04-2004 11:46:01 18.7 C 7.2 g/m*3 18.7 C 0 km/h
420 27-04-2004 11:58:01 19 C 6.84 g/m*3 19 C 0 km/h
421 27-04-2004 12:10:01 19.8 C 7.17 g/m*3 19.8 C 0 km/h
422 27-04-2004 12:22:01 20.5 C 7.12 g/m*3 20.5 C 0 km/h
423 27-04-2004 12:34:01 20.5 C 6.94 g/m*3 20.5 C 0 km/h
424 27-04-2004 12:46:01 20.5 C 6.58 g/m*3 20.5 C 0 km/h
425 27-04-2004 12:58:01 20.9 C 6.37 g/m*3 20.9 C 0 km/h
Sensor: Nr:Datum:Temp:Abs-Feuchte:Windchill:Wind:
Aussen-T/F 426 27-04-2004 13:10:01 21.7 C 6.1 g/m*3 21.7 C 0 km/h
427 27-04-2004 13:22:01 21.6 C 6.07 g/m*3 21.6 C 0 km/h
428 27-04-2004 13:34:01 21.9 C 5.98 g/m*3 21.9 C 0 km/h
429 27-04-2004 13:46:00 22 C 5.63 g/m*3 22 C 0 km/h
430 27-04-2004 13:58:00 22 C 5.82 g/m*3 22 C 0 km/h
431 27-04-2004 14:10:00 22.8 C 6.1 g/m*3 22.8 C 0 km/h
432 27-04-2004 14:22:59 23.3 C 6.06 g/m*3 23.3 C 0 km/h
433 27-04-2004 14:34:58 23.7 C 5.78 g/m*3 23.7 C 0 km/h
434 27-04-2004 14:46:01 23.7 C 5.78 g/m*3 23.7 C 0 km/h
435 27-04-2004 14:58:02 23.4 C 6.31 g/m*3 23.4 C 0 km/h
436 27-04-2004 15:10:01 24.1 C 5.91 g/m*3 24.1 C 0 km/h
437 27-04-2004 15:22:01 25.3 C 6.09 g/m*3 25.3 C 0 km/h
438 27-04-2004 15:34:01 25.6 C 5.95 g/m*3 25.6 C 0 km/h
439 27-04-2004 15:46:01 26.4 C 5.73 g/m*3 26.4 C 0 km/h
440 27-04-2004 15:58:01 26.6 C 5.54 g/m*3 26.6 C 0 km/h
441 27-04-2004 16:09:59 26.2 C 5.91 g/m*3 26.2 C 0 km/h
442 27-04-2004 16:22:58 26.3 C 5.69 g/m*3 26.3 C 0 km/h
443 27-04-2004 16:34:57 26.7 C 5.57 g/m*3 26.7 C 0 km/h
444 27-04-2004 16:46:01 26.2 C 5.42 g/m*3 26.2 C 0 km/h
445 27-04-2004 16:58:01 25.1 C 5.56 g/m*3 25.1 C 0 km/h
446 27-04-2004 17:10:01 24.2 C 5.5 g/m*3 24.2 C 0 km/h
447 27-04-2004 17:22:01 23.9 C 5.84 g/m*3 23.9 C 0 km/h
448 27-04-2004 17:34:01 24.1 C 5.91 g/m*3 24.1 C 0 km/h
449 27-04-2004 17:46:00 24.2 C 5.94 g/m*3 24.2 C 0 km/h
450 27-04-2004 17:58:01 24.4 C 6.23 g/m*3 24.4 C 0 km/h
Sensor: Nr:Datum:Temp:Abs-Feuchte:Windchill:Wind:
Aussen-T/F 451 27-04-2004 18:10:59 24.3 C 5.53 g/m*3 24.3 C 0 km/h
452 27-04-2004 18:22:58 24.6 C 5.63 g/m*3 24.6 C 0 km/h
453 27-04-2004 18:34:57 25.6 C 5.95 g/m*3 25.6 C 0 km/h
454 27-04-2004 18:46:01 25.6 C 5.95 g/m*3 25.6 C 0 km/h
455 27-04-2004 18:58:01 25.2 C 5.82 g/m*3 25.2 C 0 km/h
456 27-04-2004 19:10:01 24.7 C 5.88 g/m*3 24.7 C 0 km/h
457 27-04-2004 19:22:01 23.5 C 6.34 g/m*3 23.5 C 0 km/h
458 27-04-2004 19:34:01 22.4 C 5.76 g/m*3 22.4 C 0 km/h
459 27-04-2004 19:46:00 21.7 C 6.87 g/m*3 21.7 C 0 km/h
460 27-04-2004 19:58:00 20.8 C 6.7 g/m*3 20.8 C 0 km/h
461 27-04-2004 20:10:59 19.8 C 6.83 g/m*3 19.8 C 0 km/h
462 27-04-2004 20:22:58 19.2 C 6.76 g/m*3 19.2 C 0 km/h
463 27-04-2004 20:34:57 18.6 C 6.68 g/m*3 18.6 C 0 km/h
464 27-04-2004 20:46:01 18.3 C 6.88 g/m*3 18.3 C 0 km/h
465 27-04-2004 20:58:02 18.2 C 6.84 g/m*3 18.2 C 0 km/h
466 27-04-2004 21:10:01 18 C 6.76 g/m*3 18 C 0 km/h
467 27-04-2004 21:22:01 17.5 C 6.86 g/m*3 17.5 C 0 km/h
468 27-04-2004 21:34:01 17 C 6.8 g/m*3 17 C 0 km/h
469 27-04-2004 21:46:00 16.7 C 6.96 g/m*3 16.7 C 0 km/h
470 27-04-2004 21:58:00 16.4 C 6.84 g/m*3 16.4 C 0 km/h
471 27-04-2004 22:10:00 16.2 C 6.9 g/m*3 16.2 C 0 km/h
472 27-04-2004 22:22:58 16 C 6.81 g/m*3 16 C 0 km/h
473 27-04-2004 22:34:57 15.8 C 6.73 g/m*3 15.8 C 0 km/h
474 27-04-2004 22:46:01 15.5 C 6.74 g/m*3 15.5 C 0 km/h
475 27-04-2004 22:58:01 15.4 C 6.96 g/m*3 15.4 C 0 km/h
Sensor: Nr:Datum:Temp:Abs-Feuchte:Windchill:Wind:
Aussen-T/F 476 27-04-2004 23:10:01 15.4 C 6.83 g/m*3 15.4 C 0 km/h
477 27-04-2004 23:22:01 15 C 6.67 g/m*3 15 C 0 km/h
478 27-04-2004 23:34:01 14.7 C 6.8 g/m*3 14.7 C 0 km/h
479 27-04-2004 23:46:01 14.6 C 6.88 g/m*3 14.6 C 0 km/h
480 27-04-2004 23:58:01 14.7 C 7.05 g/m*3 14.7 C 0 km/h
481 28-04-2004 00:10:01 14.6 C 7.01 g/m*3 14.6 C 0 km/h
482 28-04-2004 00:22:01 14.6 C 7.01 g/m*3 14.6 C 0 km/h
483 28-04-2004 00:34:01 14.4 C 7.05 g/m*3 14.4 C 0 km/h
484 28-04-2004 00:46:00 14.3 C 7 g/m*3 14.3 C 0 km/h
485 28-04-2004 00:58:00 14.1 C 6.92 g/m*3 14.1 C 0 km/h
486 28-04-2004 01:10:00 14 C 6.88 g/m*3 14 C 0 km/h
487 28-04-2004 01:22:59 14 C 7 g/m*3 14 C 0 km/h
488 28-04-2004 01:34:57 13.8 C 7.03 g/m*3 13.8 C 0 km/h
489 28-04-2004 01:46:01 13.7 C 6.99 g/m*3 13.7 C 0 km/h
490 28-04-2004 01:58:01 13.5 C 7.02 g/m*3 13.5 C 0 km/h
491 28-04-2004 02:10:01 13.3 C 6.93 g/m*3 13.3 C 0 km/h
492 28-04-2004 02:22:01 13.2 C 6.89 g/m*3 13.2 C 0 km/h
493 28-04-2004 02:34:01 13.2 C 7 g/m*3 13.2 C 0 km/h
494 28-04-2004 02:47:01 13 C 7.03 g/m*3 13 C 0 km/h
495 28-04-2004 02:59:01 12.9 C 7.21 g/m*3 12.9 C 0 km/h
496 28-04-2004 03:11:00 12.4 C 6.99 g/m*3 12.4 C 0 km/h
497 28-04-2004 03:23:00 12.3 C 7.17 g/m*3 12.3 C 0 km/h
498 28-04-2004 03:35:01 12 C 7.14 g/m*3 12 C 0 km/h
499 28-04-2004 03:47:01 11.9 C 7.2 g/m*3 11.9 C 0 km/h
500 28-04-2004 03:59:01 12 C 7.25 g/m*3 12 C 0 km/h
Sensor: Nr:Datum:Temp:Abs-Feuchte:Windchill:Wind:
Aussen-T/F 501 28-04-2004 04:11:01 11.9 C 7.31 g/m*3 11.9 C 0 km/h
502 28-04-2004 04:23:01 11.9 C 7.41 g/m*3 11.9 C 0 km/h
503 28-04-2004 04:35:01 12.1 C 7.4 g/m*3 12.1 C 0 km/h
504 28-04-2004 04:47:00 12.3 C 7.38 g/m*3 12.3 C 0 km/h
505 28-04-2004 04:59:00 12.3 C 7.38 g/m*3 12.3 C 0 km/h
506 28-04-2004 05:11:00 12.2 C 7.66 g/m*3 12.2 C 0 km/h
507 28-04-2004 05:23:59 12 C 7.78 g/m*3 12 C 0 km/h
508 28-04-2004 05:35:57 11.7 C 8.05 g/m*3 11.7 C 0 km/h
509 28-04-2004 05:47:01 11.5 C 8.06 g/m*3 11.5 C 0 km/h
510 28-04-2004 05:59:01 11.6 C 8.11 g/m*3 11.6 C 0 km/h
511 28-04-2004 06:11:01 11.7 C 8.05 g/m*3 11.7 C 0 km/h
512 28-04-2004 06:23:01 11.7 C 7.95 g/m*3 11.7 C 0 km/h
513 28-04-2004 06:35:01 11.5 C 7.85 g/m*3 11.5 C 0 km/h
514 28-04-2004 06:47:00 11.7 C 7.95 g/m*3 11.7 C 0 km/h
515 28-04-2004 06:59:00 11.6 C 8 g/m*3 11.6 C 0 km/h
516 28-04-2004 07:11:00 11.7 C 8.16 g/m*3 11.7 C 0 km/h
517 28-04-2004 07:23:58 12 C 8.21 g/m*3 12 C 0 km/h
518 28-04-2004 07:35:57 12 C 8.1 g/m*3 12 C 0 km/h
519 28-04-2004 07:47:01 12 C 8.1 g/m*3 12 C 0 km/h
520 28-04-2004 07:59:01 12.2 C 8.2 g/m*3 12.2 C 0 km/h
521 28-04-2004 08:11:01 12.4 C 8.09 g/m*3 12.4 C 0 km/h
522 28-04-2004 08:23:01 13.2 C 8.04 g/m*3 13.2 C 0 km/h
523 28-04-2004 08:35:01 13.8 C 7.86 g/m*3 13.8 C 0 km/h
524 28-04-2004 08:47:00 14.7 C 7.81 g/m*3 14.7 C 0 km/h
525 28-04-2004 08:59:00 15.1 C 7.74 g/m*3 15.1 C 0 km/h
Sensor: Nr:Datum:Temp:Abs-Feuchte:Windchill:Wind:
Aussen-T/F 526 28-04-2004 09:11:59 15.4 C 7.88 g/m*3 15.4 C 0 km/h
527 28-04-2004 09:23:58 15.7 C 7.49 g/m*3 15.7 C 0 km/h
528 28-04-2004 09:35:57 15.9 C 7.58 g/m*3 15.9 C 0 km/h
529 28-04-2004 09:47:01 15.6 C 7.58 g/m*3 15.6 C 0 km/h
530 28-04-2004 09:59:01 16 C 7.63 g/m*3 16 C 0 km/h
531 28-04-2004 10:11:01 16.6 C 7.63 g/m*3 16.6 C 0 km/h
532 28-04-2004 10:23:01 17 C 7.81 g/m*3 17 C 0 km/h
533 28-04-2004 10:35:00 17.5 C 7.6 g/m*3 17.5 C 0 km/h
534 28-04-2004 10:47:01 17.7 C 7.85 g/m*3 17.7 C 0 km/h
535 28-04-2004 10:59:01 17.9 C 8.09 g/m*3 17.9 C 0 km/h
536 28-04-2004 11:11:01 18.1 C 8.19 g/m*3 18.1 C 0 km/h
537 28-04-2004 11:23:01 18.9 C 8.26 g/m*3 18.9 C 0 km/h
538 28-04-2004 11:35:01 19.5 C 8.39 g/m*3 19.5 C 0 km/h
539 28-04-2004 11:47:00 20.1 C 8.34 g/m*3 20.1 C 0 km/h
540 28-04-2004 11:59:00 20.6 C 8.05 g/m*3 20.6 C 0 km/h
541 28-04-2004 12:11:00 21 C 7.69 g/m*3 21 C 0 km/h
542 28-04-2004 12:23:59 21 C 7.51 g/m*3 21 C 0 km/h
543 28-04-2004 12:35:57 21.8 C 7.48 g/m*3 21.8 C 0 km/h
544 28-04-2004 12:47:01 22.5 C 7.79 g/m*3 22.5 C 0 km/h
545 28-04-2004 12:59:01 22.8 C 7.52 g/m*3 22.8 C 0 km/h
546 28-04-2004 13:11:01 23.3 C 7.53 g/m*3 23.3 C 0 km/h
547 28-04-2004 13:23:01 23.6 C 7.87 g/m*3 23.6 C 0 km/h
548 28-04-2004 13:35:01 23.7 C 7.49 g/m*3 23.7 C 0 km/h
549 28-04-2004 13:47:00 24.5 C 7.39 g/m*3 24.5 C 0 km/h
550 28-04-2004 13:59:00 24.8 C 7.06 g/m*3 24.8 C 0 km/h
Sensor: Nr:Datum:Temp:Abs-Feuchte:Windchill:Wind:
Aussen-T/F 551 28-04-2004 14:11:59 24.8 C 7.06 g/m*3 24.8 C 0 km/h
552 28-04-2004 14:23:58 25.3 C 7.26 g/m*3 25.3 C 0 km/h
553 28-04-2004 14:35:57 25.1 C 7.18 g/m*3 25.1 C 0 km/h
554 28-04-2004 14:47:01 24.7 C 7.02 g/m*3 24.7 C 0 km/h
555 28-04-2004 14:59:01 25.3 C 7.02 g/m*3 25.3 C 0 km/h
556 28-04-2004 15:11:01 25.1 C 6.25 g/m*3 25.1 C 0 km/h
557 28-04-2004 15:23:01 25.5 C 6.39 g/m*3 25.5 C 0 km/h
558 28-04-2004 15:35:00 25.4 C 6.36 g/m*3 25.4 C 0 km/h
559 28-04-2004 15:47:01 25.3 C 6.55 g/m*3 25.3 C 0 km/h
560 28-04-2004 15:59:01 24.6 C 6.53 g/m*3 24.6 C 0 km/h
561 28-04-2004 16:11:01 24.3 C 6.42 g/m*3 24.3 C 0 km/h
562 28-04-2004 16:23:01 23.7 C 6.84 g/m*3 23.7 C 0 km/h
563 28-04-2004 16:35:01 22.3 C 6.91 g/m*3 22.3 C 0 km/h
564 28-04-2004 16:47:00 20.3 C 7.03 g/m*3 20.3 C 0 km/h
565 28-04-2004 16:59:00 20.2 C 6.82 g/m*3 20.2 C 0 km/h
566 28-04-2004 17:11:00 19.9 C 6.87 g/m*3 19.9 C 0 km/h
567 28-04-2004 17:23:58 19.5 C 7.22 g/m*3 19.5 C 0 km/h
568 28-04-2004 17:35:57 17.6 C 9 g/m*3 17.6 C 0 km/h
569 28-04-2004 17:47:01 15.6 C 10.77 g/m*3 15.6 C 0 km/h
570 28-04-2004 17:59:01 14.9 C 10.96 g/m*3 14.9 C 0 km/h
571 28-04-2004 18:11:01 15.4 C 11.43 g/m*3 15.4 C 0 km/h
572 28-04-2004 18:23:01 14.8 C 11.02 g/m*3 14.8 C 0 km/h
573 28-04-2004 18:35:01 14.7 C 11.08 g/m*3 14.7 C 0 km/h
574 28-04-2004 18:47:00 14.8 C 11.15 g/m*3 14.8 C 0 km/h
575 28-04-2004 18:59:00 14.8 C 11.27 g/m*3 14.8 C 0 km/h
Sensor: Nr:Datum:Temp:Abs-Feuchte:Windchill:Wind:
Aussen-T/F 576 28-04-2004 19:11:00 14.1 C 10.56 g/m*3 14.1 C 0 km/h
577 28-04-2004 19:23:58 13.9 C 10.43 g/m*3 13.9 C 0 km/h
578 28-04-2004 19:35:57 13.9 C 10.31 g/m*3 13.9 C 0 km/h
579 28-04-2004 19:47:00 13.9 C 10.43 g/m*3 13.9 C 0 km/h
580 28-04-2004 19:59:00 13.7 C 10.54 g/m*3 13.7 C 0 km/h
581 28-04-2004 20:11:00 13.7 C 10.66 g/m*3 13.7 C 0 km/h
582 28-04-2004 20:23:00 13.6 C 10.71 g/m*3 13.6 C 0 km/h
583 28-04-2004 20:35:01 13.5 C 10.76 g/m*3 13.5 C 0 km/h
584 28-04-2004 20:47:00 13.6 C 10.83 g/m*3 13.6 C 0 km/h
585 28-04-2004 20:59:00 13.6 C 10.83 g/m*3 13.6 C 0 km/h
586 28-04-2004 21:11:00 13.4 C 10.69 g/m*3 13.4 C 0 km/h
587 28-04-2004 21:23:59 13.2 C 10.56 g/m*3 13.2 C 0 km/h
588 28-04-2004 21:35:57 13.4 C 10.69 g/m*3 13.4 C 0 km/h
589 28-04-2004 21:47:01 13.3 C 10.63 g/m*3 13.3 C 0 km/h
590 28-04-2004 21:59:02 13.1 C 10.5 g/m*3 13.1 C 0 km/h
591 28-04-2004 22:11:01 13 C 10.43 g/m*3 13 C 0 km/h
592 28-04-2004 22:23:01 13 C 10.43 g/m*3 13 C 0 km/h
593 28-04-2004 22:35:01 13.1 C 10.5 g/m*3 13.1 C 0 km/h
594 28-04-2004 22:47:00 12.6 C 10.18 g/m*3 12.6 C 0 km/h
595 28-04-2004 22:59:00 12.6 C 10.18 g/m*3 12.6 C 0 km/h
596 28-04-2004 23:11:00 12.7 C 10.24 g/m*3 12.7 C 0 km/h
597 28-04-2004 23:23:58 12.8 C 10.3 g/m*3 12.8 C 0 km/h
598 28-04-2004 23:35:57 12.8 C 10.3 g/m*3 12.8 C 0 km/h
599 28-04-2004 23:47:01 12.8 C 10.19 g/m*3 12.8 C 0 km/h
600 28-04-2004 23:59:01 12.8 C 10.19 g/m*3 12.8 C 0 km/h
Sensor: Nr:Datum:Temp:Abs-Feuchte:Windchill:Wind:
Aussen-T/F 601 29-04-2004 00:11:01 12.7 C 10.13 g/m*3 12.7 C 0 km/h
602 29-04-2004 00:23:01 12.7 C 10.24 g/m*3 12.7 C 0 km/h
603 29-04-2004 00:35:01 12.8 C 10.3 g/m*3 12.8 C 0 km/h
604 29-04-2004 00:47:02 12.8 C 10.3 g/m*3 12.8 C 0 km/h
605 29-04-2004 00:59:02 12.8 C 10.42 g/m*3 12.8 C 0 km/h
606 29-04-2004 01:11:01 12.5 C 10.11 g/m*3 12.5 C 0 km/h
607 29-04-2004 01:23:01 12.2 C 9.93 g/m*3 12.2 C 0 km/h
608 29-04-2004 01:35:01 12 C 9.8 g/m*3 12 C 0 km/h
609 29-04-2004 01:47:00 12 C 9.91 g/m*3 12 C 0 km/h
610 29-04-2004 01:59:00 11.8 C 9.89 g/m*3 11.8 C 0 km/h
611 29-04-2004 02:11:00 11.8 C 9.89 g/m*3 11.8 C 0 km/h
612 29-04-2004 02:23:59 11.6 C 9.77 g/m*3 11.6 C 0 km/h
613 29-04-2004 02:35:57 11.5 C 9.71 g/m*3 11.5 C 0 km/h
614 29-04-2004 02:48:03 11.7 C 9.83 g/m*3 11.7 C 0 km/h
615 29-04-2004 03:00:04 11.7 C 9.83 g/m*3 11.7 C 0 km/h
616 29-04-2004 03:12:02 11.5 C 9.81 g/m*3 11.5 C 0 km/h
617 29-04-2004 03:24:03 11.5 C 9.81 g/m*3 11.5 C 0 km/h
618 29-04-2004 03:36:00 11.4 C 9.75 g/m*3 11.4 C 0 km/h
619 29-04-2004 03:48:00 11.5 C 9.81 g/m*3 11.5 C 0 km/h
620 29-04-2004 04:00:00 11.3 C 9.69 g/m*3 11.3 C 0 km/h
621 29-04-2004 04:12:00 11.2 C 9.63 g/m*3 11.2 C 0 km/h
622 29-04-2004 04:24:59 11 C 9.51 g/m*3 11 C 0 km/h
623 29-04-2004 04:36:58 11 C 9.51 g/m*3 11 C 0 km/h
624 29-04-2004 04:48:01 11.1 C 9.57 g/m*3 11.1 C 0 km/h
625 29-04-2004 05:00:01 11 C 9.51 g/m*3 11 C 0 km/h
Sensor: Nr:Datum:Temp:Abs-Feuchte:Windchill:Wind:
Aussen-T/F 626 29-04-2004 05:12:00 11 C 9.51 g/m*3 11 C 0 km/h
627 29-04-2004 05:24:00 10.8 C 9.39 g/m*3 10.8 C 0 km/h
628 29-04-2004 05:36:00 10.8 C 9.39 g/m*3 10.8 C 0 km/h
629 29-04-2004 05:48:01 10.8 C 9.39 g/m*3 10.8 C 0 km/h
630 29-04-2004 06:00:01 10.8 C 9.39 g/m*3 10.8 C 0 km/h
631 29-04-2004 06:12:01 10.8 C 9.39 g/m*3 10.8 C 0 km/h
632 29-04-2004 06:24:01 10.8 C 9.39 g/m*3 10.8 C 0 km/h
633 29-04-2004 06:36:00 10.8 C 9.39 g/m*3 10.8 C 0 km/h
634 29-04-2004 06:48:01 11 C 9.51 g/m*3 11 C 0 km/h
635 29-04-2004 07:00:01 11.1 C 9.57 g/m*3 11.1 C 0 km/h
636 29-04-2004 07:12:01 11.2 C 9.63 g/m*3 11.2 C 0 km/h
637 29-04-2004 07:24:01 11.3 C 9.69 g/m*3 11.3 C 0 km/h
638 29-04-2004 07:36:01 11.5 C 9.81 g/m*3 11.5 C 0 km/h
639 29-04-2004 07:48:00 11.8 C 10 g/m*3 11.8 C 0 km/h
640 29-04-2004 08:00:00 12 C 10.02 g/m*3 12 C 0 km/h
641 29-04-2004 08:12:00 12.3 C 10.1 g/m*3 12.3 C 0 km/h
642 29-04-2004 08:24:59 12.5 C 10 g/m*3 12.5 C 0 km/h
643 29-04-2004 08:36:58 12.9 C 10.03 g/m*3 12.9 C 0 km/h
644 29-04-2004 08:48:01 13.1 C 9.93 g/m*3 13.1 C 0 km/h
645 29-04-2004 09:00:01 13.5 C 10.06 g/m*3 13.5 C 0 km/h
646 29-04-2004 09:12:01 13.6 C 9.89 g/m*3 13.6 C 0 km/h
647 29-04-2004 09:24:01 13.9 C 9.83 g/m*3 13.9 C 0 km/h
648 29-04-2004 09:36:01 14.2 C 9.77 g/m*3 14.2 C 0 km/h
649 29-04-2004 09:48:00 14.6 C 9.76 g/m*3 14.6 C 0 km/h
650 29-04-2004 10:00:00 15.1 C 9.93 g/m*3 15.1 C 0 km/h
Sensor: Nr:Datum:Temp:Abs-Feuchte:Windchill:Wind:
Aussen-T/F 651 29-04-2004 10:12:00 15.6 C 10.11 g/m*3 15.6 C 0 km/h
652 29-04-2004 10:24:58 16.1 C 10.28 g/m*3 16.1 C 0 km/h
653 29-04-2004 10:36:57 16.2 C 10.48 g/m*3 16.2 C 0 km/h
654 29-04-2004 10:48:01 16.6 C 10.74 g/m*3 16.6 C 0 km/h
655 29-04-2004 11:00:01 16.9 C 10.64 g/m*3 16.9 C 0 km/h
656 29-04-2004 11:12:01 17.8 C 10.62 g/m*3 17.8 C 0 km/h
657 29-04-2004 11:24:01 18 C 9.68 g/m*3 18 C 0 km/h
658 29-04-2004 11:36:01 18.2 C 8.86 g/m*3 18.2 C 0 km/h
659 29-04-2004 12:00:00 18.4 C 8.81 g/m*3 18.4 C 0 km/h
660 29-04-2004 12:00:59 19.1 C 9.34 g/m*3 19.1 C 0 km/h
661 29-04-2004 12:12:59 19.6 C 8.95 g/m*3 19.6 C 0 km/h
662 29-04-2004 12:24:58 21 C 9.53 g/m*3 21 C 0 km/h
663 29-04-2004 12:36:57 21.9 C 8.88 g/m*3 21.9 C 0 km/h
664 29-04-2004 12:48:01 21.1 C 8.84 g/m*3 21.1 C 0 km/h
665 29-04-2004 13:00:01 20.5 C 8.54 g/m*3 20.5 C 0 km/h
666 29-04-2004 13:12:01 20 C 8.64 g/m*3 20 C 0 km/h
667 29-04-2004 13:24:01 21.4 C 7.5 g/m*3 21.4 C 0 km/h
668 29-04-2004 13:36:00 22.6 C 7.63 g/m*3 22.6 C 0 km/h
669 29-04-2004 13:48:01 22.9 C 7.36 g/m*3 22.9 C 0 km/h
670 29-04-2004 14:00:01 22.5 C 7.99 g/m*3 22.5 C 0 km/h
671 29-04-2004 14:12:01 22.2 C 7.46 g/m*3 22.2 C 0 km/h
672 29-04-2004 14:24:01 22 C 7.38 g/m*3 22 C 0 km/h
673 29-04-2004 14:36:01 22.3 C 7.31 g/m*3 22.3 C 0 km/h
674 29-04-2004 14:48:00 22.2 C 7.66 g/m*3 22.2 C 0 km/h
675 29-04-2004 15:00:00 22 C 8.15 g/m*3 22 C 0 km/h
Sensor: Nr:Datum:Temp:Abs-Feuchte:Windchill:Wind:
Aussen-T/F 676 29-04-2004 15:11:59 22.1 C 8 g/m*3 22.1 C 0 km/h
677 29-04-2004 15:24:58 22.7 C 8.08 g/m*3 22.7 C 0 km/h
678 29-04-2004 15:36:57 23.8 C 7.96 g/m*3 23.8 C 0 km/h
679 29-04-2004 15:48:01 23.3 C 7.95 g/m*3 23.3 C 0 km/h
680 29-04-2004 16:00:01 23.7 C 8.56 g/m*3 23.7 C 0 km/h
681 29-04-2004 16:12:01 24.6 C 8.55 g/m*3 24.6 C 0 km/h
682 29-04-2004 16:24:01 25 C 8.52 g/m*3 25 C 0 km/h
683 29-04-2004 16:36:01 24.8 C 8.88 g/m*3 24.8 C 0 km/h
684 29-04-2004 16:48:00 24.7 C 8.37 g/m*3 24.7 C 0 km/h
685 29-04-2004 17:00:00 24.2 C 8.58 g/m*3 24.2 C 0 km/h
686 29-04-2004 17:12:00 23.6 C 8.51 g/m*3 23.6 C 0 km/h
687 29-04-2004 17:24:59 24.4 C 8.68 g/m*3 24.4 C 0 km/h
688 29-04-2004 17:36:57 24.8 C 8.42 g/m*3 24.8 C 0 km/h
689 29-04-2004 17:48:01 23.3 C 8.36 g/m*3 23.3 C 0 km/h
690 29-04-2004 18:00:01 23 C 8.63 g/m*3 23 C 0 km/h
691 29-04-2004 18:12:01 23.1 C 8.68 g/m*3 23.1 C 0 km/h
692 29-04-2004 18:24:01 22.9 C 9.4 g/m*3 22.9 C 0 km/h
693 29-04-2004 18:36:01 22.4 C 9.93 g/m*3 22.4 C 0 km/h
694 29-04-2004 18:48:00 21.4 C 10.12 g/m*3 21.4 C 0 km/h
695 29-04-2004 19:00:00 20.5 C 10.14 g/m*3 20.5 C 0 km/h
696 29-04-2004 19:12:00 20.2 C 10.14 g/m*3 20.2 C 0 km/h
697 29-04-2004 19:24:58 19.7 C 10.19 g/m*3 19.7 C 0 km/h
698 29-04-2004 19:36:57 19.2 C 9.89 g/m*3 19.2 C 0 km/h
699 29-04-2004 19:48:01 18.8 C 10.15 g/m*3 18.8 C 0 km/h
700 29-04-2004 20:00:01 18.4 C 9.91 g/m*3 18.4 C 0 km/h
Sensor: Nr:Datum:Temp:Abs-Feuchte:Windchill:Wind:
Aussen-T/F 701 29-04-2004 20:12:01 18.1 C 9.89 g/m*3 18.1 C 0 km/h
702 29-04-2004 20:24:01 18 C 10.14 g/m*3 18 C 0 km/h
703 29-04-2004 20:36:01 17.4 C 9.78 g/m*3 17.4 C 0 km/h
704 29-04-2004 20:48:00 16.9 C 9.92 g/m*3 16.9 C 0 km/h
705 29-04-2004 21:00:00 16.8 C 9.72 g/m*3 16.8 C 0 km/h
706 29-04-2004 21:12:00 16.4 C 9.63 g/m*3 16.4 C 0 km/h
707 29-04-2004 21:24:58 16 C 9.81 g/m*3 16 C 0 km/h
708 29-04-2004 21:36:57 16.1 C 10.01 g/m*3 16.1 C 0 km/h
709 29-04-2004 21:48:01 16.2 C 10.07 g/m*3 16.2 C 0 km/h
710 29-04-2004 22:00:01 15.9 C 10.02 g/m*3 15.9 C 0 km/h
711 29-04-2004 22:12:01 15.6 C 9.97 g/m*3 15.6 C 0 km/h
712 29-04-2004 22:24:01 15.4 C 9.99 g/m*3 15.4 C 0 km/h
713 29-04-2004 22:36:01 15.4 C 9.99 g/m*3 15.4 C 0 km/h
714 29-04-2004 23:00:00 15.3 C 10.06 g/m*3 15.3 C 0 km/h
715 29-04-2004 23:00:59 15 C 10 g/m*3 15 C 0 km/h
716 29-04-2004 23:12:59 14.9 C 10.07 g/m*3 14.9 C 0 km/h
717 29-04-2004 23:24:58 14.9 C 10.07 g/m*3 14.9 C 0 km/h
718 29-04-2004 23:36:57 14.8 C 10.01 g/m*3 14.8 C 0 km/h
719 29-04-2004 23:48:01 14.9 C 10.2 g/m*3 14.9 C 0 km/h
720 30-04-2004 00:00:01 14.9 C 10.2 g/m*3 14.9 C 0 km/h
721 30-04-2004 00:12:01 14.8 C 10.13 g/m*3 14.8 C 0 km/h
722 30-04-2004 00:24:01 14.7 C 9.95 g/m*3 14.7 C 0 km/h
723 30-04-2004 00:36:01 14.6 C 9.89 g/m*3 14.6 C 0 km/h
724 30-04-2004 00:48:01 14.5 C 10.07 g/m*3 14.5 C 0 km/h
725 30-04-2004 01:00:01 14.2 C 9.89 g/m*3 14.2 C 0 km/h
Sensor: Nr:Datum:Temp:Abs-Feuchte:Windchill:Wind:
Aussen-T/F 726 30-04-2004 01:12:01 14 C 9.89 g/m*3 14 C 0 km/h
727 30-04-2004 01:24:01 13.9 C 9.95 g/m*3 13.9 C 0 km/h
728 30-04-2004 01:36:01 13.8 C 10.01 g/m*3 13.8 C 0 km/h
729 30-04-2004 01:48:00 13.7 C 9.95 g/m*3 13.7 C 0 km/h
730 30-04-2004 02:00:00 13.5 C 9.83 g/m*3 13.5 C 0 km/h
731 30-04-2004 02:12:00 13.3 C 9.7 g/m*3 13.3 C 0 km/h
732 30-04-2004 02:24:58 13.1 C 9.7 g/m*3 13.1 C 0 km/h
733 30-04-2004 02:36:57 12.9 C 9.69 g/m*3 12.9 C 0 km/h
734 30-04-2004 02:49:02 12.9 C 9.69 g/m*3 12.9 C 0 km/h
735 30-04-2004 03:01:02 12.9 C 9.81 g/m*3 12.9 C 0 km/h
736 30-04-2004 03:13:02 12.9 C 9.81 g/m*3 12.9 C 0 km/h
737 30-04-2004 03:25:02 13 C 9.75 g/m*3 13 C 0 km/h
738 30-04-2004 03:37:00 13 C 9.75 g/m*3 13 C 0 km/h
739 30-04-2004 03:49:00 13 C 9.75 g/m*3 13 C 0 km/h
740 30-04-2004 04:01:00 12.9 C 9.69 g/m*3 12.9 C 0 km/h
741 30-04-2004 04:13:00 13 C 9.64 g/m*3 13 C 0 km/h
742 30-04-2004 04:25:59 13.1 C 9.7 g/m*3 13.1 C 0 km/h
743 30-04-2004 04:37:58 13.1 C 9.59 g/m*3 13.1 C 0 km/h
744 30-04-2004 04:49:01 13.1 C 9.59 g/m*3 13.1 C 0 km/h
745 30-04-2004 05:01:01 12.9 C 9.47 g/m*3 12.9 C 0 km/h
746 30-04-2004 05:13:01 12.7 C 9.46 g/m*3 12.7 C 0 km/h
747 30-04-2004 05:25:01 12.4 C 9.4 g/m*3 12.4 C 0 km/h
748 30-04-2004 05:37:01 12.3 C 9.45 g/m*3 12.3 C 0 km/h
749 30-04-2004 05:49:00 12.2 C 9.39 g/m*3 12.2 C 0 km/h
750 30-04-2004 06:01:00 11.8 C 9.26 g/m*3 11.8 C 0 km/h
Sensor: Nr:Datum:Temp:Abs-Feuchte:Windchill:Wind:
Aussen-T/F 751 30-04-2004 06:13:00 11.7 C 9.2 g/m*3 11.7 C 0 km/h
752 30-04-2004 06:25:58 11.8 C 9.37 g/m*3 11.8 C 0 km/h
753 30-04-2004 06:37:57 11.9 C 9.43 g/m*3 11.9 C 0 km/h
754 30-04-2004 06:49:01 12.2 C 9.6 g/m*3 12.2 C 0 km/h
755 30-04-2004 07:01:01 12.3 C 9.56 g/m*3 12.3 C 0 km/h
756 30-04-2004 07:13:01 12.4 C 9.51 g/m*3 12.4 C 0 km/h
757 30-04-2004 07:25:01 12.6 C 9.74 g/m*3 12.6 C 0 km/h
758 30-04-2004 07:37:01 12.8 C 9.86 g/m*3 12.8 C 0 km/h
759 30-04-2004 07:49:00 13.1 C 9.81 g/m*3 13.1 C 0 km/h
760 30-04-2004 08:01:59 13.5 C 9.83 g/m*3 13.5 C 0 km/h
761 30-04-2004 08:12:59 14 C 9.53 g/m*3 14 C 0 km/h
762 30-04-2004 08:25:58 14.3 C 9.21 g/m*3 14.3 C 0 km/h
763 30-04-2004 08:37:57 14.6 C 9.13 g/m*3 14.6 C 0 km/h
764 30-04-2004 08:49:01 14.9 C 9.05 g/m*3 14.9 C 0 km/h
765 30-04-2004 09:01:01 15 C 8.85 g/m*3 15 C 0 km/h
766 30-04-2004 09:13:01 15.4 C 8.8 g/m*3 15.4 C 0 km/h
767 30-04-2004 09:25:01 15.6 C 8.78 g/m*3 15.6 C 0 km/h
768 30-04-2004 09:37:01 15.8 C 8.75 g/m*3 15.8 C 0 km/h
769 30-04-2004 09:49:01 16.4 C 8.79 g/m*3 16.4 C 0 km/h
770 30-04-2004 10:01:01 16.9 C 8.92 g/m*3 16.9 C 0 km/h
771 30-04-2004 10:13:02 17.2 C 8.79 g/m*3 17.2 C 0 km/h
772 30-04-2004 10:25:01 17.7 C 8.9 g/m*3 17.7 C 0 km/h
773 30-04-2004 10:37:01 18.3 C 8.6 g/m*3 18.3 C 0 km/h
774 30-04-2004 10:49:00 18.8 C 8.7 g/m*3 18.8 C 0 km/h
775 30-04-2004 11:01:00 19.2 C 8.41 g/m*3 19.2 C 0 km/h
Sensor: Nr:Datum:Temp:Abs-Feuchte:Windchill:Wind:
Aussen-T/F 776 30-04-2004 11:13:00 19.6 C 8.61 g/m*3 19.6 C 0 km/h
777 30-04-2004 11:25:58 19.9 C 8.59 g/m*3 19.9 C 0 km/h
778 30-04-2004 11:37:57 20.4 C 8.49 g/m*3 20.4 C 0 km/h
779 30-04-2004 11:49:01 20.5 C 8.36 g/m*3 20.5 C 0 km/h
780 30-04-2004 12:01:01 20.9 C 8.56 g/m*3 20.9 C 0 km/h
781 30-04-2004 12:13:02 21.5 C 8.49 g/m*3 21.5 C 0 km/h
782 30-04-2004 12:25:01 21.8 C 8.63 g/m*3 21.8 C 0 km/h
783 30-04-2004 12:37:01 21.6 C 8.16 g/m*3 21.6 C 0 km/h
784 30-04-2004 12:49:01 22.1 C 8.2 g/m*3 22.1 C 0 km/h
785 30-04-2004 13:01:01 22.5 C 8.39 g/m*3 22.5 C 0 km/h
786 30-04-2004 13:13:01 23.4 C 8.41 g/m*3 23.4 C 0 km/h
787 30-04-2004 13:25:01 24.3 C 7.97 g/m*3 24.3 C 0 km/h
788 30-04-2004 13:37:01 25.3 C 7.49 g/m*3 25.3 C 0 km/h
789 30-04-2004 13:49:00 25.8 C 7.94 g/m*3 25.8 C 0 km/h
790 30-04-2004 14:01:00 25.5 C 7.58 g/m*3 25.5 C 0 km/h
791 30-04-2004 14:13:00 25.5 C 8.05 g/m*3 25.5 C 0 km/h
792 30-04-2004 14:25:59 26.1 C 8.32 g/m*3 26.1 C 0 km/h
793 30-04-2004 14:37:57 26.2 C 7.39 g/m*3 26.2 C 0 km/h
794 30-04-2004 14:49:01 26.7 C 7.59 g/m*3 26.7 C 0 km/h
795 30-04-2004 15:01:01 27.3 C 7.85 g/m*3 27.3 C 0 km/h
796 30-04-2004 15:13:02 27.6 C 7.71 g/m*3 27.6 C 0 km/h
797 30-04-2004 15:25:01 28.1 C 7.38 g/m*3 28.1 C 0 km/h
798 30-04-2004 15:37:01 28.7 C 6.78 g/m*3 28.7 C 0 km/h
799 30-04-2004 15:49:01 29.3 C 6.42 g/m*3 29.3 C 0 km/h
800 30-04-2004 16:01:02 28.5 C 5.87 g/m*3 28.5 C 0 km/h
Sensor: Nr:Datum:Temp:Abs-Feuchte:Windchill:Wind:
Aussen-T/F 801 30-04-2004 16:13:02 29.8 C 6.3 g/m*3 29.8 C 0 km/h
802 30-04-2004 16:25:02 29.7 C 6.56 g/m*3 29.7 C 0 km/h
803 30-04-2004 16:37:02 28.5 C 6.43 g/m*3 28.5 C 0 km/h
804 30-04-2004 16:49:02 28.9 C 6.28 g/m*3 28.9 C 0 km/h
805 30-04-2004 17:01:02 28.8 C 5.68 g/m*3 28.8 C 0 km/h
806 30-04-2004 17:13:02 28.6 C 5.9 g/m*3 28.6 C 0 km/h
807 30-04-2004 17:25:03 28.9 C 6 g/m*3 28.9 C 0 km/h
808 30-04-2004 17:37:03 29.3 C 5.84 g/m*3 29.3 C 0 km/h
809 30-04-2004 17:49:00 29.5 C 5.9 g/m*3 29.5 C 0 km/h
810 30-04-2004 18:00:59 30.1 C 6.1 g/m*3 30.1 C 0 km/h
811 30-04-2004 18:12:59 29.2 C 5.81 g/m*3 29.2 C 0 km/h
812 30-04-2004 18:25:58 27.5 C 6.35 g/m*3 27.5 C 0 km/h
813 30-04-2004 18:37:57 22.6 C 7.83 g/m*3 22.6 C 0 km/h
814 30-04-2004 18:49:01 21.7 C 8.01 g/m*3 21.7 C 0 km/h
815 30-04-2004 19:01:01 21.3 C 7.83 g/m*3 21.3 C 0 km/h
816 30-04-2004 19:13:01 21.1 C 7.92 g/m*3 21.1 C 0 km/h
817 30-04-2004 19:25:01 20.3 C 8.09 g/m*3 20.3 C 0 km/h
818 30-04-2004 19:37:01 19.7 C 8.15 g/m*3 19.7 C 0 km/h
819 30-04-2004 19:49:00 19.5 C 8.06 g/m*3 19.5 C 0 km/h
820 30-04-2004 20:01:59 19.5 C 8.22 g/m*3 19.5 C 0 km/h
821 30-04-2004 20:12:59 19.3 C 8.13 g/m*3 19.3 C 0 km/h
822 30-04-2004 20:25:59 19.2 C 8.57 g/m*3 19.2 C 0 km/h
823 30-04-2004 20:37:57 19.1 C 8.69 g/m*3 19.1 C 0 km/h
824 30-04-2004 20:49:01 18.9 C 8.59 g/m*3 18.9 C 0 km/h
825 30-04-2004 21:01:01 18.6 C 8.75 g/m*3 18.6 C 0 km/h
Sensor: Nr:Datum:Temp:Abs-Feuchte:Windchill:Wind:
Aussen-T/F 826 30-04-2004 21:13:01 18.4 C 8.81 g/m*3 18.4 C 0 km/h
827 30-04-2004 21:25:01 18.1 C 8.65 g/m*3 18.1 C 0 km/h
828 30-04-2004 21:37:01 18.3 C 8.44 g/m*3 18.3 C 0 km/h
829 30-04-2004 21:49:00 18.1 C 9.27 g/m*3 18.1 C 0 km/h
830 30-04-2004 22:01:00 15.3 C 10.32 g/m*3 15.3 C 0 km/h
831 30-04-2004 22:13:00 15 C 11.03 g/m*3 15 C 0 km/h
832 30-04-2004 22:25:58 14.8 C 11.15 g/m*3 14.8 C 0 km/h
833 30-04-2004 22:37:57 14.9 C 11.47 g/m*3 14.9 C 0 km/h
834 30-04-2004 22:49:01 14.9 C 11.47 g/m*3 14.9 C 0 km/h
835 30-04-2004 23:01:01 14.4 C 11.13 g/m*3 14.4 C 0 km/h
836 30-04-2004 23:13:01 14.3 C 11.06 g/m*3 14.3 C 0 km/h
837 30-04-2004 23:25:01 14.5 C 11.32 g/m*3 14.5 C 0 km/h
838 30-04-2004 23:37:01 14.4 C 11.25 g/m*3 14.4 C 0 km/h
839 30-04-2004 23:49:00 14.6 C 11.26 g/m*3 14.6 C 0 km/h

Legende:
   Min
   Max


Maximal/Minimal-Werte vom 24.04.2004 - 30.04.2004

Sensor Min Max Avg
Temp
(Aussen-T/F)
4.8 °C
25-04-2004  06:56:01
30.1 °C
30-04-2004  18:00:59
15.3 °C
Abs-Feuchte
(Aussen-T/F)
3.88 g/m*3
24-04-2004  17:55:01
11.47 g/m*3
30-04-2004  22:37:57
7.25 g/m*3
Windchill
(Aussen-T/F)
4.8 C
25-04-2004  06:56:01
30.1 C
30-04-2004  18:00:59
15.28 C

Die Daten stammen von einer Davis Vantage Pro 2 Wetter-Station und werden unter Linux mit der Software wview2wettercgi und aufbereitet. Alle Angaben erfolgen ohne Gewähr für ihre Vollständigkeit oder Richtigkeit.
Kontakt: Rainer Krienke krienke@uni-koblenz.de . Meine Webseiten an der Uni Koblenz oder privat.
Version: $Revision: 0.78 $